createdAt,value
2023-01-30T00:00:27.924Z,29.60
2023-01-30T00:02:54.560Z,30.36
2023-01-30T00:05:21.107Z,27.86
2023-01-30T00:07:47.632Z,27.39
2023-01-30T00:10:14.185Z,26.35
2023-01-30T00:12:40.728Z,26.31
2023-01-30T00:15:07.527Z,26.73
2023-01-30T00:17:34.226Z,27.05
2023-01-30T00:20:00.729Z,26.32
2023-01-30T00:22:27.244Z,26.98
2023-01-30T00:24:53.891Z,25.91
2023-01-30T00:27:20.403Z,26.12
2023-01-30T00:29:57.802Z,25.84
2023-01-30T00:32:28.866Z,25.57
2023-01-30T00:34:55.364Z,25.73
2023-01-30T00:37:21.840Z,26.24
2023-01-30T00:39:48.478Z,25.69
2023-01-30T00:42:14.945Z,25.50
2023-01-30T00:44:41.459Z,25.57
2023-01-30T00:47:08.394Z,25.73
2023-01-30T00:49:36.160Z,26.02
2023-01-30T00:52:02.809Z,25.55
2023-01-30T00:54:29.491Z,25.46
2023-01-30T00:56:56.114Z,25.64
2023-01-30T00:59:22.595Z,25.56
2023-01-30T01:01:49.127Z,25.81
2023-01-30T01:04:15.650Z,25.67
2023-01-30T01:06:42.129Z,25.44
2023-01-30T01:09:09.362Z,25.48
2023-01-30T01:11:36.199Z,25.93
2023-01-30T01:14:05.522Z,26.78
2023-01-30T01:16:33.417Z,26.72
2023-01-30T01:19:00.093Z,26.89
2023-01-30T01:21:26.623Z,25.50
2023-01-30T01:23:56.258Z,25.98
2023-01-30T01:26:23.679Z,25.67
2023-01-30T01:28:53.684Z,26.66
2023-01-30T01:31:20.290Z,26.90
2023-01-30T01:33:46.833Z,26.66
2023-01-30T01:36:20.045Z,26.23
2023-01-30T01:38:56.115Z,26.67
2023-01-30T01:41:23.298Z,26.34
2023-01-30T01:44:08.484Z,27.53
2023-01-30T01:46:58.982Z,27.13
2023-01-30T01:49:30.503Z,27.49
2023-01-30T01:52:03.000Z,27.95
2023-01-30T01:54:44.507Z,26.73
2023-01-30T01:57:33.741Z,26.99
2023-01-30T02:00:21.453Z,26.91
2023-01-30T02:02:54.900Z,27.57
2023-01-30T02:05:22.280Z,27.78
2023-01-30T02:08:11.890Z,27.52
2023-01-30T02:10:51.424Z,27.23
2023-01-30T02:13:18.762Z,27.22
2023-01-30T02:15:45.415Z,26.86
2023-01-30T02:18:14.106Z,27.39
2023-01-30T02:21:02.623Z,28.27
2023-01-30T02:23:57.354Z,28.14
2023-01-30T02:26:35.980Z,27.74
2023-01-30T02:29:02.484Z,28.40
2023-01-30T02:31:44.148Z,28.14
2023-01-30T02:34:35.879Z,28.87
2023-01-30T02:37:34.289Z,28.40
2023-01-30T02:40:34.877Z,28.89
2023-01-30T02:43:31.352Z,27.97
2023-01-30T02:46:14.138Z,29.16
2023-01-30T02:48:48.711Z,28.90
2023-01-30T02:51:23.735Z,29.89
2023-01-30T02:53:51.338Z,29.59
2023-01-30T02:56:17.926Z,30.10
2023-01-30T02:58:58.516Z,29.23
2023-01-30T03:01:49.513Z,29.00
2023-01-30T03:05:06.936Z,29.41
2023-01-30T03:08:04.108Z,28.83
2023-01-30T03:10:38.018Z,30.31
2023-01-30T03:13:29.125Z,29.20
2023-01-30T03:16:05.062Z,29.66
2023-01-30T03:18:31.866Z,28.38
2023-01-30T03:21:06.473Z,29.43
2023-01-30T03:23:33.094Z,29.28
2023-01-30T03:26:03.926Z,29.61
2023-01-30T03:28:31.287Z,29.81
2023-01-30T03:30:57.846Z,29.98
2023-01-30T03:33:24.345Z,29.07
2023-01-30T03:35:52.551Z,29.47
2023-01-30T03:38:20.149Z,29.07
2023-01-30T03:40:47.193Z,29.54
2023-01-30T03:43:13.721Z,29.28
2023-01-30T03:45:40.187Z,29.06
2023-01-30T03:48:06.702Z,29.35
2023-01-30T03:50:33.228Z,30.11
2023-01-30T03:52:59.730Z,29.03
2023-01-30T03:55:26.200Z,29.75
2023-01-30T03:57:57.436Z,28.47
2023-01-30T04:00:23.988Z,27.76
2023-01-30T04:02:50.481Z,26.56
2023-01-30T04:05:18.440Z,27.00
2023-01-30T04:07:45.205Z,28.11
2023-01-30T04:10:12.133Z,28.91
2023-01-30T04:12:38.636Z,28.29
2023-01-30T04:15:05.595Z,27.45
2023-01-30T04:17:32.057Z,26.54
2023-01-30T04:19:58.539Z,27.34
2023-01-30T04:22:25.132Z,27.95
2023-01-30T04:24:51.617Z,28.83
2023-01-30T04:27:18.123Z,28.17
2023-01-30T04:29:44.797Z,27.46
2023-01-30T04:32:11.256Z,27.50
2023-01-30T04:34:37.866Z,27.72
2023-01-30T04:37:04.353Z,28.57
2023-01-30T04:39:30.817Z,27.55
2023-01-30T04:41:57.305Z,28.48
2023-01-30T04:44:23.816Z,28.40
2023-01-30T04:46:50.279Z,27.94
2023-01-30T04:49:16.809Z,27.97
2023-01-30T04:51:43.334Z,29.29
2023-01-30T04:54:09.889Z,28.90
2023-01-30T04:56:36.363Z,29.42
2023-01-30T04:59:02.933Z,29.92
2023-01-30T05:01:38.294Z,29.03
2023-01-30T05:04:06.746Z,29.73
2023-01-30T05:06:34.383Z,29.74
2023-01-30T05:09:01.546Z,28.93
2023-01-30T05:11:29.997Z,28.83
2023-01-30T05:13:56.935Z,28.91
2023-01-30T05:16:24.892Z,30.23
2023-01-30T05:18:51.660Z,29.34
2023-01-30T05:21:24.309Z,29.81
2023-01-30T05:23:52.248Z,31.02
2023-01-30T05:26:19.587Z,30.71
2023-01-30T05:28:52.395Z,29.65
2023-01-30T05:31:18.912Z,29.74
2023-01-30T05:33:48.247Z,30.18
2023-01-30T05:36:17.484Z,29.97
2023-01-30T05:38:44.711Z,30.51
2023-01-30T05:41:12.760Z,29.97
2023-01-30T05:43:39.559Z,31.00
2023-01-30T05:46:06.903Z,31.57
2023-01-30T05:48:34.422Z,31.50
2023-01-30T05:51:01.379Z,31.78
2023-01-30T05:53:30.918Z,32.25
2023-01-30T05:56:05.316Z,32.02
2023-01-30T05:58:33.002Z,31.29
2023-01-30T06:01:01.635Z,31.24
2023-01-30T06:03:28.207Z,31.77
2023-01-30T06:05:54.748Z,32.11
2023-01-30T06:08:21.256Z,32.09
2023-01-30T06:10:47.887Z,31.95
2023-01-30T06:13:14.392Z,32.68
2023-01-30T06:15:40.896Z,32.02
2023-01-30T06:18:07.464Z,32.76
2023-01-30T06:20:34.039Z,32.34
2023-01-30T06:23:00.612Z,31.90
2023-01-30T06:25:27.199Z,32.16
2023-01-30T06:27:53.890Z,32.39
2023-01-30T06:30:20.464Z,34.63
2023-01-30T06:32:50.448Z,35.33
2023-01-30T06:35:17.239Z,33.93
2023-01-30T06:37:45.365Z,33.48
2023-01-30T06:40:12.904Z,33.99
2023-01-30T06:42:44.391Z,33.04
2023-01-30T06:45:11.277Z,34.20
2023-01-30T06:47:45.623Z,33.68
2023-01-30T06:50:14.474Z,33.05
2023-01-30T06:52:42.581Z,32.19
2023-01-30T06:55:10.803Z,33.65
2023-01-30T06:57:37.986Z,33.69
2023-01-30T07:00:06.582Z,32.91
2023-01-30T07:02:33.464Z,33.40
2023-01-30T07:05:03.497Z,34.55
2023-01-30T07:07:31.187Z,34.18
2023-01-30T07:10:07.799Z,34.49
2023-01-30T07:12:35.325Z,34.42
2023-01-30T07:15:01.830Z,34.98
2023-01-30T07:17:28.297Z,33.20
2023-01-30T07:19:54.929Z,34.42
2023-01-30T07:22:21.432Z,35.14
2023-01-30T07:24:47.918Z,35.76
2023-01-30T07:27:14.413Z,33.63
2023-01-30T07:29:41.271Z,34.04
2023-01-30T07:32:15.214Z,32.76
2023-01-30T07:34:41.753Z,33.09
2023-01-30T07:37:08.380Z,32.69
2023-01-30T07:39:34.853Z,33.63
2023-01-30T07:42:01.923Z,35.03
2023-01-30T07:44:28.459Z,34.62
2023-01-30T07:46:55.020Z,35.50
2023-01-30T07:49:21.670Z,35.20
2023-01-30T07:51:48.181Z,35.71
2023-01-30T07:54:14.706Z,33.70
2023-01-30T07:56:41.215Z,33.70
2023-01-30T07:59:07.704Z,34.38
2023-01-30T08:01:34.187Z,34.41
2023-01-30T08:04:00.692Z,35.85
2023-01-30T08:06:27.208Z,35.35
2023-01-30T08:08:53.836Z,35.23
2023-01-30T08:11:20.569Z,35.38
2023-01-30T08:13:47.218Z,35.07
2023-01-30T08:16:13.805Z,34.27
2023-01-30T08:18:40.362Z,34.48
2023-01-30T08:21:07.049Z,36.85
2023-01-30T08:23:34.156Z,35.16
2023-01-30T08:26:04.787Z,33.93
2023-01-30T08:28:31.478Z,34.13
2023-01-30T08:30:58.581Z,34.77
2023-01-30T08:33:25.451Z,35.05
2023-01-30T08:35:51.958Z,33.93
2023-01-30T08:38:18.488Z,33.28
2023-01-30T08:40:45.095Z,32.90
2023-01-30T08:43:11.613Z,33.61
2023-01-30T08:45:38.137Z,33.53
2023-01-30T08:48:06.030Z,33.54
2023-01-30T08:50:33.455Z,34.08
2023-01-30T08:53:04.598Z,32.67
2023-01-30T08:55:31.223Z,32.63
2023-01-30T08:57:57.807Z,33.84
2023-01-30T09:00:24.386Z,33.04
2023-01-30T09:02:55.474Z,30.92
2023-01-30T09:05:24.921Z,32.46
2023-01-30T09:07:51.512Z,32.91
2023-01-30T09:10:18.656Z,32.18
2023-01-30T09:12:45.416Z,31.74
2023-01-30T09:15:12.372Z,31.02
2023-01-30T09:17:38.986Z,31.41
2023-01-30T09:20:07.353Z,31.57
2023-01-30T09:22:34.113Z,32.47
2023-01-30T09:25:00.828Z,31.85
2023-01-30T09:27:27.520Z,31.08
2023-01-30T09:29:54.011Z,30.51
2023-01-30T09:32:20.592Z,29.61
2023-01-30T09:34:47.135Z,29.46
2023-01-30T09:37:13.757Z,30.19
2023-01-30T09:39:40.298Z,30.90
2023-01-30T09:42:15.545Z,32.10
2023-01-30T09:44:54.110Z,32.69
2023-01-30T09:47:29.728Z,31.19
2023-01-30T09:50:19.333Z,31.29
2023-01-30T09:53:13.727Z,30.79
2023-01-30T09:55:41.558Z,30.95
2023-01-30T09:58:20.479Z,31.58
2023-01-30T10:00:51.411Z,31.67
2023-01-30T10:03:31.139Z,32.27
2023-01-30T10:06:15.020Z,32.61
2023-01-30T10:09:00.380Z,32.25
2023-01-30T10:11:46.039Z,33.39
2023-01-30T10:14:27.847Z,32.11
2023-01-30T10:17:31.548Z,31.00
2023-01-30T10:20:21.544Z,30.36
2023-01-30T10:22:54.293Z,34.17
2023-01-30T10:25:38.364Z,32.72
2023-01-30T10:28:30.859Z,32.87
2023-01-30T10:31:23.674Z,32.30
2023-01-30T10:34:04.981Z,32.75
2023-01-30T10:37:02.211Z,33.16
2023-01-30T10:40:03.316Z,34.16
2023-01-30T10:42:48.725Z,34.12
2023-01-30T10:45:20.429Z,35.19
2023-01-30T10:48:01.667Z,35.44
2023-01-30T10:50:46.218Z,35.77
2023-01-30T10:53:20.524Z,34.69
2023-01-30T10:56:05.167Z,35.60
2023-01-30T10:58:48.657Z,35.75
2023-01-30T11:01:22.815Z,35.27
2023-01-30T11:04:19.202Z,34.65
2023-01-30T11:06:46.862Z,35.72
2023-01-30T11:09:13.410Z,35.46
2023-01-30T11:11:51.185Z,35.06
2023-01-30T11:14:20.076Z,34.78
2023-01-30T11:16:53.815Z,34.49
2023-01-30T11:19:25.634Z,33.43
2023-01-30T11:21:54.847Z,32.32
2023-01-30T11:24:41.697Z,30.12
2023-01-30T11:27:12.206Z,30.30
2023-01-30T11:29:39.982Z,32.26
2023-01-30T11:32:14.602Z,30.96
2023-01-30T11:34:44.031Z,31.81
2023-01-30T11:37:23.294Z,30.74
2023-01-30T11:39:53.146Z,32.35
2023-01-30T11:42:25.616Z,30.97
2023-01-30T11:45:15.680Z,31.29
2023-01-30T11:48:02.279Z,30.53
2023-01-30T11:50:41.564Z,32.34
2023-01-30T11:53:35.134Z,30.87
2023-01-30T11:56:21.118Z,31.53
2023-01-30T11:58:56.480Z,29.17
2023-01-30T12:01:27.115Z,29.43
2023-01-30T12:03:55.856Z,32.64
2023-01-30T12:06:34.732Z,32.22
2023-01-30T12:09:06.376Z,30.98
2023-01-30T12:11:38.632Z,32.31
2023-01-30T12:14:33.048Z,32.61
2023-01-30T12:17:20.197Z,31.69
2023-01-30T12:19:55.826Z,31.18
2023-01-30T12:22:31.380Z,30.92
2023-01-30T12:25:12.322Z,31.41
2023-01-30T12:28:01.645Z,30.44
2023-01-30T12:30:46.288Z,31.18
2023-01-30T12:35:55.045Z,31.07
2023-01-30T12:39:05.349Z,30.09
2023-01-30T12:41:31.795Z,30.79
2023-01-30T12:44:26.721Z,30.95
2023-01-30T12:47:36.829Z,30.54
2023-01-30T12:50:12.220Z,31.75
2023-01-30T12:53:17.006Z,30.34
2023-01-30T12:56:11.269Z,29.32
2023-01-30T12:58:57.169Z,29.92
2023-01-30T13:01:48.849Z,31.12
2023-01-30T13:05:04.249Z,29.83
2023-01-30T13:07:59.317Z,30.03
2023-01-30T13:10:44.627Z,30.79
2023-01-30T13:13:32.757Z,29.56
2023-01-30T13:16:18.459Z,30.55
2023-01-30T13:18:53.084Z,30.67
2023-01-30T13:21:31.612Z,30.38
2023-01-30T13:24:05.946Z,29.09
2023-01-30T13:26:41.415Z,29.24
2023-01-30T13:29:30.662Z,30.10
2023-01-30T13:32:37.651Z,29.10
2023-01-30T13:35:19.320Z,30.08
2023-01-30T13:37:48.969Z,28.73
2023-01-30T13:40:23.158Z,29.19
2023-01-30T13:43:00.486Z,29.44
2023-01-30T13:45:33.760Z,28.34
2023-01-30T13:48:19.511Z,28.75
2023-01-30T13:51:13.423Z,27.84
2023-01-30T13:53:48.272Z,28.40
2023-01-30T13:56:40.686Z,29.40
2023-01-30T13:59:29.968Z,28.00
2023-01-30T14:01:59.581Z,28.90
2023-01-30T14:04:41.259Z,28.44
2023-01-30T14:07:24.417Z,28.73
2023-01-30T14:10:13.876Z,29.63
2023-01-30T14:12:48.250Z,29.14
2023-01-30T14:15:14.780Z,29.60
2023-01-30T14:17:58.043Z,30.26
2023-01-30T14:20:28.276Z,29.88
2023-01-30T14:23:01.590Z,29.33
2023-01-30T14:25:28.080Z,29.62
2023-01-30T14:28:00.667Z,29.12
2023-01-30T14:30:33.044Z,28.84
2023-01-30T14:33:02.377Z,28.05
2023-01-30T14:35:30.758Z,28.03
2023-01-30T14:38:06.185Z,27.15
2023-01-30T14:40:37.864Z,29.47
2023-01-30T14:43:13.384Z,30.01
2023-01-30T14:45:48.985Z,29.26
2023-01-30T14:48:45.368Z,28.58
2023-01-30T14:51:46.742Z,28.89
2023-01-30T14:54:13.724Z,28.05
2023-01-30T14:56:54.361Z,27.79
2023-01-30T14:59:26.457Z,28.29
2023-01-30T15:02:00.826Z,28.62
2023-01-30T15:04:49.662Z,28.79
2023-01-30T15:07:24.375Z,28.69
2023-01-30T15:10:19.492Z,28.35
2023-01-30T15:13:06.508Z,30.58
2023-01-30T15:15:48.749Z,30.42
2023-01-30T15:18:51.611Z,29.64
2023-01-30T15:21:39.377Z,29.18
2023-01-30T15:24:36.875Z,29.85
2023-01-30T15:27:38.356Z,29.65
2023-01-30T15:30:35.522Z,30.72
2023-01-30T15:33:19.936Z,30.22
2023-01-30T15:35:49.408Z,29.73
2023-01-30T15:38:24.872Z,28.22
2023-01-30T15:40:54.264Z,29.04
2023-01-30T15:43:55.672Z,29.36
2023-01-30T15:46:37.231Z,28.72
2023-01-30T15:49:38.527Z,30.16
2023-01-30T15:52:11.861Z,29.58
2023-01-30T15:54:38.375Z,29.13
2023-01-30T15:57:05.061Z,30.00
2023-01-30T15:59:35.740Z,30.56
2023-01-30T16:02:16.396Z,30.18
2023-01-30T16:04:42.908Z,30.87
2023-01-30T16:07:26.509Z,31.43
2023-01-30T16:10:07.770Z,31.39
2023-01-30T16:12:34.574Z,31.59
2023-01-30T16:15:18.366Z,31.60
2023-01-30T16:18:07.552Z,31.57
2023-01-30T16:21:00.155Z,32.17
2023-01-30T16:24:02.634Z,31.79
2023-01-30T16:26:31.299Z,31.53
2023-01-30T16:29:21.314Z,31.88
2023-01-30T16:31:50.535Z,32.45
2023-01-30T16:34:33.210Z,31.51
2023-01-30T16:37:05.118Z,31.89
2023-01-30T16:39:34.588Z,31.44
2023-01-30T16:42:03.637Z,31.92
2023-01-30T16:44:31.743Z,31.48
2023-01-30T16:47:02.174Z,32.54
2023-01-30T16:49:42.834Z,31.77
2023-01-30T16:52:27.802Z,31.48
2023-01-30T16:54:59.782Z,31.88
2023-01-30T16:57:51.537Z,31.41
2023-01-30T17:00:25.701Z,31.97
2023-01-30T17:03:02.718Z,32.56
2023-01-30T17:05:38.272Z,31.53
2023-01-30T17:08:05.609Z,32.49
2023-01-30T17:10:41.108Z,33.44
2023-01-30T17:13:31.621Z,33.23
2023-01-30T17:16:33.855Z,32.92
2023-01-30T17:19:01.472Z,32.18
2023-01-30T17:21:31.588Z,31.78
2023-01-30T17:24:02.329Z,32.22
2023-01-30T17:26:30.202Z,32.58
2023-01-30T17:28:56.686Z,32.36
2023-01-30T17:31:23.326Z,32.28
2023-01-30T17:33:49.947Z,32.63
2023-01-30T17:36:30.699Z,32.47
2023-01-30T17:38:59.950Z,33.22
2023-01-30T17:41:29.363Z,33.64
2023-01-30T17:43:56.756Z,33.88
2023-01-30T17:46:47.534Z,33.50
2023-01-30T17:49:21.602Z,33.83
2023-01-30T17:51:49.864Z,34.85
2023-01-30T17:54:17.137Z,34.21
2023-01-30T17:56:52.333Z,33.62
2023-01-30T17:59:20.373Z,33.85
2023-01-30T18:01:49.751Z,33.30
2023-01-30T18:04:17.012Z,33.30
2023-01-30T18:06:47.020Z,33.22
2023-01-30T18:09:19.923Z,33.94
2023-01-30T18:11:47.694Z,33.27
2023-01-30T18:14:15.157Z,33.90
2023-01-30T18:16:42.674Z,33.62
2023-01-30T18:19:13.783Z,33.21
2023-01-30T18:21:43.767Z,33.58
2023-01-30T18:24:11.137Z,33.67
2023-01-30T18:26:37.839Z,34.67
2023-01-30T18:29:04.395Z,33.84
2023-01-30T18:31:31.726Z,34.11
2023-01-30T18:33:58.405Z,33.52
2023-01-30T18:36:25.044Z,33.41
2023-01-30T18:38:51.542Z,34.53
2023-01-30T18:41:21.366Z,35.32
2023-01-30T18:43:54.382Z,34.70
2023-01-30T18:46:21.033Z,34.62
2023-01-30T18:48:47.527Z,35.03
2023-01-30T18:51:16.777Z,37.40
2023-01-30T18:53:44.403Z,37.31
2023-01-30T18:56:13.605Z,35.99
2023-01-30T18:58:41.071Z,36.38
2023-01-30T19:01:17.912Z,41.45
2023-01-30T19:03:44.780Z,37.48
2023-01-30T19:06:13.101Z,37.09
2023-01-30T19:08:40.354Z,41.43
2023-01-30T19:11:09.872Z,37.51
2023-01-30T19:13:36.480Z,36.64
2023-01-30T19:16:04.310Z,39.39
2023-01-30T19:18:32.019Z,39.96
2023-01-30T19:21:01.957Z,39.96
2023-01-30T19:23:30.080Z,36.50
2023-01-30T19:25:58.530Z,37.23
2023-01-30T19:28:25.067Z,36.65
2023-01-30T19:30:51.650Z,35.78
2023-01-30T19:33:18.311Z,37.46
2023-01-30T19:35:44.826Z,34.83
2023-01-30T19:38:11.320Z,34.17
2023-01-30T19:40:42.627Z,35.45
2023-01-30T19:43:11.237Z,37.32
2023-01-30T19:45:39.615Z,36.05
2023-01-30T19:48:07.224Z,35.75
2023-01-30T19:50:33.781Z,37.37
2023-01-30T19:53:00.255Z,39.05
2023-01-30T19:55:27.053Z,38.90
2023-01-30T19:57:53.533Z,39.45
2023-01-30T20:00:20.574Z,38.10
2023-01-30T20:02:47.615Z,37.73
2023-01-30T20:05:14.140Z,39.22
2023-01-30T20:07:40.631Z,51.79
2023-01-30T20:10:07.367Z,40.86
2023-01-30T20:12:33.852Z,37.64
2023-01-30T20:15:00.468Z,34.65
2023-01-30T20:17:27.011Z,33.29
2023-01-30T20:19:53.513Z,32.13
2023-01-30T20:22:20.432Z,33.20
2023-01-30T20:24:46.909Z,32.19
2023-01-30T20:27:13.389Z,31.24
2023-01-30T20:29:39.872Z,28.74
2023-01-30T20:32:06.420Z,27.98
2023-01-30T20:34:33.090Z,26.83
2023-01-30T20:36:59.730Z,26.79
2023-01-30T20:39:27.460Z,28.94
2023-01-30T20:41:53.982Z,28.60
2023-01-30T20:44:20.506Z,26.92
2023-01-30T20:46:48.591Z,26.48
2023-01-30T20:49:18.968Z,25.74
2023-01-30T20:51:50.034Z,26.13
2023-01-30T20:54:18.053Z,25.05
2023-01-30T20:56:47.361Z,24.81
2023-01-30T20:59:20.031Z,23.60
2023-01-30T21:01:46.958Z,23.47
2023-01-30T21:04:15.878Z,23.05
2023-01-30T21:06:45.822Z,21.64
2023-01-30T21:09:17.162Z,21.80
2023-01-30T21:11:44.483Z,20.26
2023-01-30T21:14:11.200Z,19.16
2023-01-30T21:16:38.536Z,18.85
2023-01-30T21:19:09.688Z,17.14
2023-01-30T21:21:48.202Z,15.51
2023-01-30T21:24:14.839Z,15.00
2023-01-30T21:26:44.562Z,14.99
2023-01-30T21:29:11.706Z,15.23
2023-01-30T21:31:40.309Z,16.73
2023-01-30T21:34:07.281Z,18.03
2023-01-30T21:36:33.842Z,19.93
2023-01-30T21:39:00.410Z,20.14
2023-01-30T21:41:39.105Z,17.20
2023-01-30T21:44:06.673Z,14.21
2023-01-30T21:46:51.768Z,14.86
2023-01-30T21:49:19.191Z,17.12
2023-01-30T21:51:48.511Z,16.02
2023-01-30T21:54:16.732Z,15.69
2023-01-30T21:56:44.339Z,12.34
2023-01-30T21:59:12.367Z,11.72
2023-01-30T22:01:40.375Z,11.57
2023-01-30T22:04:10.318Z,10.90
2023-01-30T22:06:38.087Z,10.96
2023-01-30T22:09:07.989Z,9.43
2023-01-30T22:11:36.501Z,9.05
2023-01-30T22:14:04.093Z,7.73
2023-01-30T22:16:30.748Z,6.52
2023-01-30T22:19:00.204Z,5.70
2023-01-30T22:21:32.167Z,5.94
2023-01-30T22:23:58.705Z,5.28
2023-01-30T22:26:26.107Z,4.70
2023-01-30T22:28:54.515Z,5.18
2023-01-30T22:31:22.409Z,5.51
2023-01-30T22:33:51.893Z,5.29
2023-01-30T22:36:18.584Z,5.22
2023-01-30T22:38:47.775Z,5.13
2023-01-30T22:41:23.081Z,5.16
2023-01-30T22:43:54.880Z,5.63
2023-01-30T22:46:24.211Z,4.98
2023-01-30T22:48:54.793Z,4.83
2023-01-30T22:51:27.370Z,4.87
2023-01-30T22:54:03.305Z,4.82
2023-01-30T22:56:35.029Z,4.74
2023-01-30T22:59:01.566Z,5.42
2023-01-30T23:01:30.916Z,5.60
2023-01-30T23:04:00.125Z,4.47
2023-01-30T23:06:27.700Z,4.32
2023-01-30T23:08:55.385Z,4.15
2023-01-30T23:11:29.588Z,4.42
2023-01-30T23:14:04.998Z,3.97
2023-01-30T23:16:33.585Z,3.67
2023-01-30T23:19:01.152Z,3.83
2023-01-30T23:21:27.802Z,4.23
2023-01-30T23:23:57.456Z,4.17
2023-01-30T23:26:26.481Z,4.03
2023-01-30T23:28:53.437Z,3.58
2023-01-30T23:31:23.360Z,3.72
2023-01-30T23:34:03.333Z,3.52
2023-01-30T23:36:29.844Z,3.87
2023-01-30T23:38:58.508Z,3.97
2023-01-30T23:41:28.445Z,3.89
2023-01-30T23:43:56.921Z,3.91
2023-01-30T23:46:29.848Z,3.66
2023-01-30T23:49:01.152Z,3.54
2023-01-30T23:51:30.503Z,3.82
2023-01-30T23:53:57.112Z,3.72
2023-01-30T23:56:26.431Z,3.45
2023-01-30T23:58:52.972Z,3.83
